sensor_id;sensor_type;location;lat;lon;timestamp;pressure;altitude;pressure_sealevel;temperature;humidity
75008;BME280;63554;48.940;12.050;2023-07-30T00:02:13;96964.06;;;17.11;100.00
75008;BME280;63554;48.940;12.050;2023-07-30T00:06:17;96967.84;;;17.10;100.00
75008;BME280;63554;48.940;12.050;2023-07-30T00:10:21;96968.13;;;17.09;100.00
75008;BME280;63554;48.940;12.050;2023-07-30T00:14:24;96960.75;;;17.09;100.00
75008;BME280;63554;48.940;12.050;2023-07-30T00:18:29;96954.16;;;17.05;100.00
75008;BME280;63554;48.940;12.050;2023-07-30T00:22:33;96949.53;;;17.06;100.00
75008;BME280;63554;48.940;12.050;2023-07-30T00:26:37;96947.06;;;17.04;100.00
75008;BME280;63554;48.940;12.050;2023-07-30T00:30:40;96946.53;;;17.02;100.00
75008;BME280;63554;48.940;12.050;2023-07-30T00:34:43;96948.97;;;16.98;100.00
75008;BME280;63554;48.940;12.050;2023-07-30T00:38:46;96953.91;;;16.96;100.00
75008;BME280;63554;48.940;12.050;2023-07-30T00:42:52;96952.25;;;16.90;100.00
75008;BME280;63554;48.940;12.050;2023-07-30T00:46:55;96954.97;;;16.90;100.00
75008;BME280;63554;48.940;12.050;2023-07-30T00:50:58;96967.84;;;16.90;100.00
75008;BME280;63554;48.940;12.050;2023-07-30T00:55:02;96964.25;;;16.89;100.00
75008;BME280;63554;48.940;12.050;2023-07-30T00:59:07;96967.28;;;16.88;100.00
75008;BME280;63554;48.940;12.050;2023-07-30T01:03:10;96962.91;;;16.87;100.00
75008;BME280;63554;48.940;12.050;2023-07-30T01:07:12;96962.63;;;16.88;100.00
75008;BME280;63554;48.940;12.050;2023-07-30T01:11:15;96968.38;;;16.87;100.00
75008;BME280;63554;48.940;12.050;2023-07-30T01:15:21;96973.00;;;16.86;100.00
75008;BME280;63554;48.940;12.050;2023-07-30T01:19:24;96975.50;;;16.88;100.00
75008;BME280;63554;48.940;12.050;2023-07-30T01:23:28;96976.81;;;16.85;100.00
75008;BME280;63554;48.940;12.050;2023-07-30T01:27:34;96972.47;;;16.84;100.00
75008;BME280;63554;48.940;12.050;2023-07-30T01:31:40;96981.22;;;16.86;100.00
75008;BME280;63554;48.940;12.050;2023-07-30T01:35:43;96971.63;;;16.84;100.00
75008;BME280;63554;48.940;12.050;2023-07-30T01:39:48;96971.66;;;16.89;100.00
75008;BME280;63554;48.940;12.050;2023-07-30T01:43:53;96974.38;;;16.89;100.00
75008;BME280;63554;48.940;12.050;2023-07-30T01:47:55;96992.44;;;16.90;100.00
75008;BME280;63554;48.940;12.050;2023-07-30T01:51:58;96988.03;;;16.89;100.00
75008;BME280;63554;48.940;12.050;2023-07-30T01:56:02;96997.88;;;16.85;100.00
75008;BME280;63554;48.940;12.050;2023-07-30T02:00:06;96981.41;;;16.79;100.00
75008;BME280;63554;48.940;12.050;2023-07-30T02:04:09;96988.00;;;16.78;100.00
75008;BME280;63554;48.940;12.050;2023-07-30T02:08:12;96986.63;;;16.81;100.00
75008;BME280;63554;48.940;12.050;2023-07-30T02:12:18;96977.38;;;16.82;100.00
75008;BME280;63554;48.940;12.050;2023-07-30T02:16:21;96974.06;;;16.80;100.00
75008;BME280;63554;48.940;12.050;2023-07-30T02:20:24;96999.75;;;16.79;100.00
75008;BME280;63554;48.940;12.050;2023-07-30T02:24:26;97002.72;;;16.77;100.00
75008;BME280;63554;48.940;12.050;2023-07-30T02:28:30;96990.16;;;16.71;100.00
75008;BME280;63554;48.940;12.050;2023-07-30T02:32:33;96990.19;;;16.76;100.00
75008;BME280;63554;48.940;12.050;2023-07-30T02:36:36;96999.19;;;16.77;100.00
75008;BME280;63554;48.940;12.050;2023-07-30T02:40:39;97004.38;;;16.73;100.00
75008;BME280;63554;48.940;12.050;2023-07-30T02:44:43;96995.03;;;16.59;100.00
75008;BME280;63554;48.940;12.050;2023-07-30T02:48:45;96984.06;;;16.54;100.00
75008;BME280;63554;48.940;12.050;2023-07-30T02:52:48;96946.94;;;16.53;100.00
75008;BME280;63554;48.940;12.050;2023-07-30T02:56:51;96948.56;;;16.54;100.00
75008;BME280;63554;48.940;12.050;2023-07-30T03:00:55;96961.41;;;16.53;100.00
75008;BME280;63554;48.940;12.050;2023-07-30T03:04:57;96926.97;;;16.52;100.00
75008;BME280;63554;48.940;12.050;2023-07-30T03:09:00;96950.47;;;16.53;100.00
75008;BME280;63554;48.940;12.050;2023-07-30T03:13:04;96969.31;;;16.50;100.00
75008;BME280;63554;48.940;12.050;2023-07-30T03:17:08;96962.72;;;16.46;100.00
75008;BME280;63554;48.940;12.050;2023-07-30T03:21:11;96979.66;;;16.43;100.00
75008;BME280;63554;48.940;12.050;2023-07-30T03:25:13;96976.34;;;16.40;100.00
75008;BME280;63554;48.940;12.050;2023-07-30T03:29:16;96975.25;;;16.36;100.00
75008;BME280;63554;48.940;12.050;2023-07-30T03:33:20;96961.59;;;16.31;100.00
75008;BME280;63554;48.940;12.050;2023-07-30T03:37:23;96965.09;;;16.27;100.00
75008;BME280;63554;48.940;12.050;2023-07-30T03:41:26;96971.66;;;16.26;100.00
75008;BME280;63554;48.940;12.050;2023-07-30T03:45:28;96969.75;;;16.21;100.00
75008;BME280;63554;48.940;12.050;2023-07-30T03:49:32;96982.25;;;16.17;100.00
75008;BME280;63554;48.940;12.050;2023-07-30T03:53:35;96980.31;;;16.12;100.00
75008;BME280;63554;48.940;12.050;2023-07-30T03:57:38;96983.00;;;16.07;100.00
75008;BME280;63554;48.940;12.050;2023-07-30T04:01:41;96998.56;;;16.01;100.00
75008;BME280;63554;48.940;12.050;2023-07-30T04:05:45;97010.81;;;15.99;100.00
75008;BME280;63554;48.940;12.050;2023-07-30T04:09:47;97010.00;;;15.98;100.00
75008;BME280;63554;48.940;12.050;2023-07-30T04:13:50;97014.59;;;15.93;100.00
75008;BME280;63554;48.940;12.050;2023-07-30T04:17:53;97015.66;;;15.87;100.00
75008;BME280;63554;48.940;12.050;2023-07-30T04:21:57;97031.16;;;15.81;100.00
75008;BME280;63554;48.940;12.050;2023-07-30T04:26:00;97025.94;;;15.74;100.00
75008;BME280;63554;48.940;12.050;2023-07-30T04:30:03;97022.63;;;15.72;100.00
75008;BME280;63554;48.940;12.050;2023-07-30T04:34:06;97032.03;;;15.54;100.00
75008;BME280;63554;48.940;12.050;2023-07-30T04:38:10;97026.81;;;15.53;100.00
75008;BME280;63554;48.940;12.050;2023-07-30T04:42:13;97036.31;;;15.50;100.00
75008;BME280;63554;48.940;12.050;2023-07-30T04:46:16;97034.13;;;15.47;100.00
75008;BME280;63554;48.940;12.050;2023-07-30T04:50:19;97044.72;;;15.43;100.00
75008;BME280;63554;48.940;12.050;2023-07-30T04:54:23;97046.38;;;15.45;100.00
75008;BME280;63554;48.940;12.050;2023-07-30T04:58:25;97050.50;;;15.47;100.00
75008;BME280;63554;48.940;12.050;2023-07-30T05:02:29;97064.94;;;15.48;100.00
75008;BME280;63554;48.940;12.050;2023-07-30T05:06:32;97061.00;;;15.60;100.00
75008;BME280;63554;48.940;12.050;2023-07-30T05:10:36;97067.03;;;15.68;100.00
75008;BME280;63554;48.940;12.050;2023-07-30T05:14:39;97076.34;;;15.72;100.00
75008;BME280;63554;48.940;12.050;2023-07-30T05:18:42;97074.16;;;15.69;100.00
75008;BME280;63554;48.940;12.050;2023-07-30T05:22:46;97074.47;;;15.72;100.00
75008;BME280;63554;48.940;12.050;2023-07-30T05:26:50;97074.25;;;15.79;100.00
75008;BME280;63554;48.940;12.050;2023-07-30T05:30:53;97077.63;;;15.91;100.00
75008;BME280;63554;48.940;12.050;2023-07-30T05:34:55;97072.78;;;15.98;100.00
75008;BME280;63554;48.940;12.050;2023-07-30T05:38:58;97074.25;;;16.11;100.00
75008;BME280;63554;48.940;12.050;2023-07-30T05:43:02;97082.16;;;16.13;100.00
75008;BME280;63554;48.940;12.050;2023-07-30T05:47:05;97093.38;;;16.16;100.00
75008;BME280;63554;48.940;12.050;2023-07-30T05:51:08;97096.47;;;16.25;100.00
75008;BME280;63554;48.940;12.050;2023-07-30T05:55:11;97097.03;;;16.27;100.00
75008;BME280;63554;48.940;12.050;2023-07-30T05:59:15;97108.72;;;16.23;100.00
75008;BME280;63554;48.940;12.050;2023-07-30T06:03:22;97096.72;;;16.24;100.00
75008;BME280;63554;48.940;12.050;2023-07-30T06:07:25;97094.84;;;16.29;100.00
75008;BME280;63554;48.940;12.050;2023-07-30T06:11:27;97114.03;;;16.39;100.00
75008;BME280;63554;48.940;12.050;2023-07-30T06:15:31;97116.06;;;16.59;100.00
75008;BME280;63554;48.940;12.050;2023-07-30T06:19:34;97114.19;;;16.65;100.00
75008;BME280;63554;48.940;12.050;2023-07-30T06:23:38;97113.50;;;16.85;100.00
75008;BME280;63554;48.940;12.050;2023-07-30T06:27:40;97115.06;;;16.81;100.00
75008;BME280;63554;48.940;12.050;2023-07-30T06:31:44;97115.06;;;16.76;100.00
75008;BME280;63554;48.940;12.050;2023-07-30T06:35:47;97119.22;;;16.84;100.00
75008;BME280;63554;48.940;12.050;2023-07-30T06:39:50;97117.06;;;16.91;100.00
75008;BME280;63554;48.940;12.050;2023-07-30T06:43:52;97126.28;;;16.79;100.00
75008;BME280;63554;48.940;12.050;2023-07-30T06:47:56;97122.53;;;16.91;100.00
75008;BME280;63554;48.940;12.050;2023-07-30T06:51:59;97124.75;;;16.94;100.00
75008;BME280;63554;48.940;12.050;2023-07-30T06:56:02;97119.50;;;16.87;100.00
75008;BME280;63554;48.940;12.050;2023-07-30T07:00:06;97128.84;;;16.96;100.00
75008;BME280;63554;48.940;12.050;2023-07-30T07:04:11;97129.16;;;17.05;100.00
75008;BME280;63554;48.940;12.050;2023-07-30T07:08:14;97126.47;;;17.15;100.00
75008;BME280;63554;48.940;12.050;2023-07-30T07:12:16;97132.81;;;17.26;100.00
75008;BME280;63554;48.940;12.050;2023-07-30T07:16:19;97129.81;;;17.28;100.00
75008;BME280;63554;48.940;12.050;2023-07-30T07:20:24;97131.47;;;17.44;100.00
75008;BME280;63554;48.940;12.050;2023-07-30T07:24:26;97128.53;;;17.71;99.71
75008;BME280;63554;48.940;12.050;2023-07-30T07:28:29;97133.00;;;17.88;96.33
75008;BME280;63554;48.940;12.050;2023-07-30T07:32:32;97136.00;;;17.86;96.67
75008;BME280;63554;48.940;12.050;2023-07-30T07:36:40;97120.66;;;18.06;95.10
75008;BME280;63554;48.940;12.050;2023-07-30T07:40:43;97122.56;;;18.36;93.48
75008;BME280;63554;48.940;12.050;2023-07-30T07:44:46;97121.13;;;18.69;90.97
75008;BME280;63554;48.940;12.050;2023-07-30T07:48:49;97110.75;;;18.61;88.18
75008;BME280;63554;48.940;12.050;2023-07-30T07:52:53;97138.72;;;18.37;90.28
75008;BME280;63554;48.940;12.050;2023-07-30T07:56:55;97130.25;;;18.18;90.79
75008;BME280;63554;48.940;12.050;2023-07-30T08:01:00;97125.31;;;18.36;92.06
75008;BME280;63554;48.940;12.050;2023-07-30T08:05:03;97128.59;;;18.38;92.32
75008;BME280;63554;48.940;12.050;2023-07-30T08:09:07;97132.69;;;18.66;90.09
75008;BME280;63554;48.940;12.050;2023-07-30T08:13:11;97129.09;;;18.81;88.63
75008;BME280;63554;48.940;12.050;2023-07-30T08:17:14;97119.75;;;18.77;88.93
75008;BME280;63554;48.940;12.050;2023-07-30T08:21:16;97137.31;;;18.71;89.33
75008;BME280;63554;48.940;12.050;2023-07-30T08:25:23;97126.06;;;18.67;89.79
75008;BME280;63554;48.940;12.050;2023-07-30T08:29:26;97132.81;;;19.11;85.92
75008;BME280;63554;48.940;12.050;2023-07-30T08:33:30;97140.78;;;19.67;82.82
75008;BME280;63554;48.940;12.050;2023-07-30T08:37:32;97136.69;;;20.09;79.31
75008;BME280;63554;48.940;12.050;2023-07-30T08:41:36;97125.47;;;20.06;78.85
75008;BME280;63554;48.940;12.050;2023-07-30T08:45:40;97116.22;;;20.26;78.26
75008;BME280;63554;48.940;12.050;2023-07-30T08:49:46;97124.09;;;20.38;78.71
75008;BME280;63554;48.940;12.050;2023-07-30T08:53:49;97120.94;;;20.20;77.33
75008;BME280;63554;48.940;12.050;2023-07-30T08:57:53;97114.88;;;20.23;76.54
75008;BME280;63554;48.940;12.050;2023-07-30T09:02:00;97110.16;;;20.29;74.35
75008;BME280;63554;48.940;12.050;2023-07-30T09:06:03;97105.16;;;20.65;74.76
75008;BME280;63554;48.940;12.050;2023-07-30T09:10:09;97116.84;;;20.18;75.36
75008;BME280;63554;48.940;12.050;2023-07-30T09:14:13;97114.75;;;20.04;78.40
75008;BME280;63554;48.940;12.050;2023-07-30T09:18:17;97108.56;;;19.88;82.62
75008;BME280;63554;48.940;12.050;2023-07-30T09:22:24;97102.34;;;20.07;80.10
75008;BME280;63554;48.940;12.050;2023-07-30T09:26:26;97083.75;;;20.57;78.59
75008;BME280;63554;48.940;12.050;2023-07-30T09:30:31;97088.19;;;20.82;78.17
75008;BME280;63554;48.940;12.050;2023-07-30T09:34:34;97092.56;;;20.59;76.77
75008;BME280;63554;48.940;12.050;2023-07-30T09:38:38;97095.28;;;20.64;76.36
75008;BME280;63554;48.940;12.050;2023-07-30T09:42:42;97097.31;;;20.78;77.16
75008;BME280;63554;48.940;12.050;2023-07-30T09:46:47;97096.09;;;20.89;78.92
75008;BME280;63554;48.940;12.050;2023-07-30T09:50:51;97082.66;;;20.58;79.31
75008;BME280;63554;48.940;12.050;2023-07-30T09:54:55;97089.41;;;20.71;78.31
75008;BME280;63554;48.940;12.050;2023-07-30T09:59:00;97106.16;;;20.74;77.47
75008;BME280;63554;48.940;12.050;2023-07-30T10:03:05;97093.19;;;20.51;76.86
75008;BME280;63554;48.940;12.050;2023-07-30T10:07:14;97084.72;;;20.13;76.82
75008;BME280;63554;48.940;12.050;2023-07-30T10:11:19;97111.06;;;19.85;80.46
75008;BME280;63554;48.940;12.050;2023-07-30T10:15:22;97136.84;;;19.34;83.57
75008;BME280;63554;48.940;12.050;2023-07-30T10:19:27;97120.28;;;18.89;89.24
75008;BME280;63554;48.940;12.050;2023-07-30T10:23:32;97129.97;;;18.25;94.54
75008;BME280;63554;48.940;12.050;2023-07-30T10:27:38;97126.41;;;18.04;96.67
75008;BME280;63554;48.940;12.050;2023-07-30T10:31:44;97137.59;;;17.77;96.39
75008;BME280;63554;48.940;12.050;2023-07-30T10:35:54;97126.91;;;17.75;94.76
75008;BME280;63554;48.940;12.050;2023-07-30T10:39:57;97122.31;;;17.86;92.79
75008;BME280;63554;48.940;12.050;2023-07-30T10:44:00;97119.28;;;18.08;94.12
75008;BME280;63554;48.940;12.050;2023-07-30T10:48:04;97103.34;;;18.46;94.71
75008;BME280;63554;48.940;12.050;2023-07-30T10:52:08;97112.38;;;18.72;92.51
75008;BME280;63554;48.940;12.050;2023-07-30T10:56:12;97113.63;;;19.11;87.35
75008;BME280;63554;48.940;12.050;2023-07-30T11:00:15;97110.25;;;19.29;89.56
75008;BME280;63554;48.940;12.050;2023-07-30T11:04:18;97106.03;;;19.47;88.88
75008;BME280;63554;48.940;12.050;2023-07-30T11:08:33;97123.66;;;19.36;87.40
75008;BME280;63554;48.940;12.050;2023-07-30T11:12:36;97115.22;;;19.27;86.92
75008;BME280;63554;48.940;12.050;2023-07-30T11:16:48;97126.44;;;19.31;86.88
75008;BME280;63554;48.940;12.050;2023-07-30T11:20:50;97125.25;;;19.47;88.15
75008;BME280;63554;48.940;12.050;2023-07-30T11:24:56;97130.22;;;19.45;85.34
75008;BME280;63554;48.940;12.050;2023-07-30T11:28:58;97138.31;;;19.71;86.96
75008;BME280;63554;48.940;12.050;2023-07-30T11:33:01;97125.41;;;19.77;86.67
75008;BME280;63554;48.940;12.050;2023-07-30T11:37:04;97137.19;;;19.77;82.81
75008;BME280;63554;48.940;12.050;2023-07-30T11:41:12;97122.03;;;19.85;83.85
75008;BME280;63554;48.940;12.050;2023-07-30T11:45:19;97104.75;;;20.48;85.07
75008;BME280;63554;48.940;12.050;2023-07-30T11:49:22;97094.50;;;20.83;81.26
75008;BME280;63554;48.940;12.050;2023-07-30T11:53:43;97098.03;;;20.88;81.25
75008;BME280;63554;48.940;12.050;2023-07-30T11:57:47;97112.66;;;20.84;80.07
75008;BME280;63554;48.940;12.050;2023-07-30T12:01:50;97111.31;;;20.81;79.11
75008;BME280;63554;48.940;12.050;2023-07-30T12:05:54;97106.00;;;20.90;78.59
75008;BME280;63554;48.940;12.050;2023-07-30T12:10:06;97133.41;;;20.42;80.57
75008;BME280;63554;48.940;12.050;2023-07-30T12:14:11;97156.44;;;20.46;80.56
75008;BME280;63554;48.940;12.050;2023-07-30T12:18:14;97161.47;;;20.04;82.40
75008;BME280;63554;48.940;12.050;2023-07-30T12:22:16;97146.00;;;20.13;83.24
75008;BME280;63554;48.940;12.050;2023-07-30T12:26:19;97162.75;;;20.46;81.30
75008;BME280;63554;48.940;12.050;2023-07-30T12:30:23;97155.34;;;21.29;79.01
75008;BME280;63554;48.940;12.050;2023-07-30T12:34:27;97148.72;;;21.73;75.01
75008;BME280;63554;48.940;12.050;2023-07-30T12:38:30;97154.59;;;21.67;74.67
75008;BME280;63554;48.940;12.050;2023-07-30T12:42:33;97155.09;;;21.26;73.65
75008;BME280;63554;48.940;12.050;2023-07-30T12:46:37;97157.81;;;21.74;70.02
75008;BME280;63554;48.940;12.050;2023-07-30T12:50:42;97163.38;;;21.69;68.67
75008;BME280;63554;48.940;12.050;2023-07-30T12:54:44;97163.25;;;21.79;70.00
75008;BME280;63554;48.940;12.050;2023-07-30T12:58:48;97165.84;;;21.03;70.69
75008;BME280;63554;48.940;12.050;2023-07-30T13:02:52;97175.19;;;21.02;71.96
75008;BME280;63554;48.940;12.050;2023-07-30T13:06:57;97166.28;;;21.10;68.14
75008;BME280;63554;48.940;12.050;2023-07-30T13:10:59;97169.44;;;20.99;69.92
75008;BME280;63554;48.940;12.050;2023-07-30T13:15:02;97179.69;;;20.93;69.93
75008;BME280;63554;48.940;12.050;2023-07-30T13:19:09;97174.44;;;21.45;67.24
75008;BME280;63554;48.940;12.050;2023-07-30T13:23:11;97176.78;;;21.57;66.46
75008;BME280;63554;48.940;12.050;2023-07-30T13:27:14;97179.34;;;21.48;68.65
75008;BME280;63554;48.940;12.050;2023-07-30T13:31:17;97183.09;;;21.33;67.68
75008;BME280;63554;48.940;12.050;2023-07-30T13:35:21;97173.19;;;20.84;69.06
75008;BME280;63554;48.940;12.050;2023-07-30T13:39:24;97168.09;;;20.96;69.36
75008;BME280;63554;48.940;12.050;2023-07-30T13:43:27;97169.91;;;21.06;69.13
75008;BME280;63554;48.940;12.050;2023-07-30T13:47:30;97159.66;;;21.36;68.96
75008;BME280;63554;48.940;12.050;2023-07-30T13:51:34;97160.78;;;21.78;66.62
75008;BME280;63554;48.940;12.050;2023-07-30T13:55:37;97157.94;;;22.21;63.12
75008;BME280;63554;48.940;12.050;2023-07-30T13:59:40;97143.63;;;22.70;61.22
75008;BME280;63554;48.940;12.050;2023-07-30T14:03:45;97139.81;;;23.27;60.06
75008;BME280;63554;48.940;12.050;2023-07-30T14:07:49;97150.75;;;22.71;59.12
75008;BME280;63554;48.940;12.050;2023-07-30T14:11:55;97135.38;;;22.98;58.00
75008;BME280;63554;48.940;12.050;2023-07-30T14:15:58;97130.00;;;23.21;57.14
75008;BME280;63554;48.940;12.050;2023-07-30T14:20:01;97133.72;;;22.83;53.37
75008;BME280;63554;48.940;12.050;2023-07-30T14:24:05;97132.03;;;23.15;50.54
75008;BME280;63554;48.940;12.050;2023-07-30T14:28:08;97137.63;;;22.96;50.18
75008;BME280;63554;48.940;12.050;2023-07-30T14:32:10;97134.69;;;23.06;50.84
75008;BME280;63554;48.940;12.050;2023-07-30T14:36:13;97127.94;;;23.13;50.24
75008;BME280;63554;48.940;12.050;2023-07-30T14:40:17;97134.59;;;23.12;49.30
75008;BME280;63554;48.940;12.050;2023-07-30T14:44:20;97145.53;;;23.03;50.05
75008;BME280;63554;48.940;12.050;2023-07-30T14:48:23;97153.59;;;22.99;52.41
75008;BME280;63554;48.940;12.050;2023-07-30T14:52:26;97162.28;;;22.60;51.64
75008;BME280;63554;48.940;12.050;2023-07-30T14:56:31;97158.16;;;22.43;51.82
75008;BME280;63554;48.940;12.050;2023-07-30T15:00:35;97160.97;;;22.57;52.55
75008;BME280;63554;48.940;12.050;2023-07-30T15:04:38;97145.50;;;23.30;51.47
75008;BME280;63554;48.940;12.050;2023-07-30T15:08:41;97144.41;;;23.04;51.19
75008;BME280;63554;48.940;12.050;2023-07-30T15:12:45;97152.97;;;22.56;54.00
75008;BME280;63554;48.940;12.050;2023-07-30T15:16:48;97148.69;;;22.30;53.17
75008;BME280;63554;48.940;12.050;2023-07-30T15:20:51;97150.19;;;22.42;52.84
75008;BME280;63554;48.940;12.050;2023-07-30T15:24:54;97145.88;;;22.68;51.92
75008;BME280;63554;48.940;12.050;2023-07-30T15:28:58;97140.13;;;22.65;52.51
75008;BME280;63554;48.940;12.050;2023-07-30T15:33:01;97149.19;;;22.98;50.81
75008;BME280;63554;48.940;12.050;2023-07-30T15:37:04;97138.13;;;22.98;49.38
75008;BME280;63554;48.940;12.050;2023-07-30T15:41:07;97141.66;;;23.04;49.87
75008;BME280;63554;48.940;12.050;2023-07-30T15:45:11;97151.09;;;22.84;47.18
75008;BME280;63554;48.940;12.050;2023-07-30T15:49:14;97134.94;;;22.77;46.95
75008;BME280;63554;48.940;12.050;2023-07-30T15:53:16;97165.78;;;22.79;45.82
75008;BME280;63554;48.940;12.050;2023-07-30T15:57:19;97160.16;;;23.03;45.31
75008;BME280;63554;48.940;12.050;2023-07-30T16:01:23;97145.53;;;23.03;44.75
75008;BME280;63554;48.940;12.050;2023-07-30T16:05:26;97141.09;;;23.02;44.98
75008;BME280;63554;48.940;12.050;2023-07-30T16:09:29;97151.94;;;22.98;45.15
75008;BME280;63554;48.940;12.050;2023-07-30T16:13:31;97152.19;;;23.16;45.26
75008;BME280;63554;48.940;12.050;2023-07-30T16:17:35;97148.69;;;23.38;45.65
75008;BME280;63554;48.940;12.050;2023-07-30T16:21:38;97162.50;;;23.38;45.31
75008;BME280;63554;48.940;12.050;2023-07-30T16:25:41;97167.53;;;23.22;44.39
75008;BME280;63554;48.940;12.050;2023-07-30T16:29:44;97179.06;;;22.63;44.53
75008;BME280;63554;48.940;12.050;2023-07-30T16:33:48;97165.56;;;22.62;46.42
75008;BME280;63554;48.940;12.050;2023-07-30T16:37:51;97166.00;;;22.83;45.33
75008;BME280;63554;48.940;12.050;2023-07-30T16:41:54;97167.78;;;22.93;45.94
75008;BME280;63554;48.940;12.050;2023-07-30T16:45:58;97165.72;;;22.84;46.17
75008;BME280;63554;48.940;12.050;2023-07-30T16:50:03;97168.03;;;22.77;46.36
75008;BME280;63554;48.940;12.050;2023-07-30T16:54:09;97179.47;;;23.03;44.80
75008;BME280;63554;48.940;12.050;2023-07-30T16:58:13;97181.72;;;22.68;43.68
75008;BME280;63554;48.940;12.050;2023-07-30T17:02:15;97186.84;;;22.23;43.64
75008;BME280;63554;48.940;12.050;2023-07-30T17:06:19;97188.19;;;22.07;44.61
75008;BME280;63554;48.940;12.050;2023-07-30T17:10:22;97191.03;;;21.83;45.34
75008;BME280;63554;48.940;12.050;2023-07-30T17:14:28;97189.69;;;21.80;46.84
75008;BME280;63554;48.940;12.050;2023-07-30T17:18:31;97193.78;;;21.83;46.57
75008;BME280;63554;48.940;12.050;2023-07-30T17:22:36;97209.63;;;21.91;47.08
75008;BME280;63554;48.940;12.050;2023-07-30T17:26:38;97210.69;;;21.95;46.21
75008;BME280;63554;48.940;12.050;2023-07-30T17:30:41;97223.75;;;21.65;47.80
75008;BME280;63554;48.940;12.050;2023-07-30T17:34:44;97208.41;;;21.35;48.59
75008;BME280;63554;48.940;12.050;2023-07-30T17:38:48;97220.75;;;21.13;48.82
75008;BME280;63554;48.940;12.050;2023-07-30T17:42:51;97228.75;;;21.10;49.81
75008;BME280;63554;48.940;12.050;2023-07-30T17:46:54;97229.41;;;21.26;48.81
75008;BME280;63554;48.940;12.050;2023-07-30T17:50:57;97241.56;;;21.25;49.08
75008;BME280;63554;48.940;12.050;2023-07-30T17:55:01;97239.13;;;21.18;49.65
75008;BME280;63554;48.940;12.050;2023-07-30T17:59:09;97263.34;;;20.92;49.38
75008;BME280;63554;48.940;12.050;2023-07-30T18:03:12;97262.78;;;20.55;49.99
75008;BME280;63554;48.940;12.050;2023-07-30T18:07:14;97264.03;;;20.34;51.06
75008;BME280;63554;48.940;12.050;2023-07-30T18:11:18;97270.47;;;20.14;51.46
75008;BME280;63554;48.940;12.050;2023-07-30T18:15:21;97284.81;;;20.01;51.72
75008;BME280;63554;48.940;12.050;2023-07-30T18:19:24;97279.13;;;19.87;52.24
75008;BME280;63554;48.940;12.050;2023-07-30T18:23:27;97297.28;;;19.78;52.30
75008;BME280;63554;48.940;12.050;2023-07-30T18:27:31;97292.63;;;19.68;52.63
75008;BME280;63554;48.940;12.050;2023-07-30T18:31:34;97305.03;;;19.55;53.10
75008;BME280;63554;48.940;12.050;2023-07-30T18:35:37;97309.97;;;19.48;53.15
75008;BME280;63554;48.940;12.050;2023-07-30T18:39:40;97316.03;;;19.40;53.74
75008;BME280;63554;48.940;12.050;2023-07-30T18:43:44;97315.25;;;19.24;53.90
75008;BME280;63554;48.940;12.050;2023-07-30T18:47:46;97323.50;;;19.13;54.07
75008;BME280;63554;48.940;12.050;2023-07-30T18:51:49;97333.09;;;19.06;54.31
75008;BME280;63554;48.940;12.050;2023-07-30T18:55:53;97339.69;;;18.94;54.91
75008;BME280;63554;48.940;12.050;2023-07-30T18:59:57;97355.03;;;18.85;54.63
75008;BME280;63554;48.940;12.050;2023-07-30T19:04:01;97362.41;;;18.80;54.75
75008;BME280;63554;48.940;12.050;2023-07-30T19:08:04;97364.03;;;18.70;54.90
75008;BME280;63554;48.940;12.050;2023-07-30T19:12:07;97364.84;;;18.66;55.02
75008;BME280;63554;48.940;12.050;2023-07-30T19:16:11;97364.81;;;18.55;55.18
75008;BME280;63554;48.940;12.050;2023-07-30T19:20:14;97373.31;;;18.49;55.52
75008;BME280;63554;48.940;12.050;2023-07-30T19:24:16;97378.78;;;18.38;55.80
75008;BME280;63554;48.940;12.050;2023-07-30T19:28:19;97381.22;;;18.35;55.73
75008;BME280;63554;48.940;12.050;2023-07-30T19:32:25;97380.13;;;18.31;55.91
75008;BME280;63554;48.940;12.050;2023-07-30T19:36:28;97386.66;;;18.25;56.64
75008;BME280;63554;48.940;12.050;2023-07-30T19:40:30;97384.72;;;18.20;57.50
75008;BME280;63554;48.940;12.050;2023-07-30T19:44:33;97387.19;;;18.16;57.53
75008;BME280;63554;48.940;12.050;2023-07-30T19:48:37;97390.72;;;18.12;58.18
75008;BME280;63554;48.940;12.050;2023-07-30T19:52:41;97395.63;;;18.05;58.61
75008;BME280;63554;48.940;12.050;2023-07-30T19:56:43;97381.88;;;17.94;58.44
75008;BME280;63554;48.940;12.050;2023-07-30T20:00:46;97393.91;;;17.88;59.16
75008;BME280;63554;48.940;12.050;2023-07-30T20:04:50;97408.38;;;17.84;60.58
75008;BME280;63554;48.940;12.050;2023-07-30T20:08:53;97406.41;;;17.79;60.42
75008;BME280;63554;48.940;12.050;2023-07-30T20:12:55;97415.13;;;17.71;60.16
75008;BME280;63554;48.940;12.050;2023-07-30T20:16:58;97414.53;;;17.64;61.97
75008;BME280;63554;48.940;12.050;2023-07-30T20:21:07;97413.94;;;17.56;60.89
75008;BME280;63554;48.940;12.050;2023-07-30T20:25:10;97408.16;;;17.53;61.34
75008;BME280;63554;48.940;12.050;2023-07-30T20:29:13;97407.56;;;17.46;62.44
75008;BME280;63554;48.940;12.050;2023-07-30T20:33:17;97404.22;;;17.38;62.50
75008;BME280;63554;48.940;12.050;2023-07-30T20:37:21;97410.44;;;17.29;62.38
75008;BME280;63554;48.940;12.050;2023-07-30T20:41:24;97410.34;;;17.13;63.25
75008;BME280;63554;48.940;12.050;2023-07-30T20:45:27;97408.34;;;17.04;62.96
75008;BME280;63554;48.940;12.050;2023-07-30T20:49:30;97412.13;;;16.97;63.15
75008;BME280;63554;48.940;12.050;2023-07-30T20:53:36;97412.31;;;16.91;64.18
75008;BME280;63554;48.940;12.050;2023-07-30T20:57:39;97423.47;;;16.84;64.78
75008;BME280;63554;48.940;12.050;2023-07-30T21:01:41;97426.91;;;16.79;66.00
75008;BME280;63554;48.940;12.050;2023-07-30T21:05:44;97423.84;;;16.71;66.42